Atlanta, Georgia
Traffic Map
Current Weather Conditions
Atlanta, Georgia
Clear
Clear
21°
Feels Like: 21°
Wind Chill: 21° Ceiling: Unl
Heat Index: 21° Visibility: 10mi
Dew Point: 17° Wind: 10mph
Humidity: 81% Direction: 340° (NNW)
Pressure: 30in Gusts: 0mph
Raw Report DataKATL 171252Z 34009KT 10SM CLR 21/17 A3000 RMK AO2 SLP149 T02060172
Traffic Incident Summary
Active as of:
Severity:
Category:
InformationThere was an issue retrieving the traffic information for this location. Please try a different location or try again shortly.
Advertisements
Track Severe Weather on mobile